Time;durP1;ratioP1;P1;durP2;ratioP2;P2;SDS_P1;SDS_P2;PMS_P1;PMS_P2;Temp;Humidity;BMP_temperature;BMP_pressure;BME280_temperature;BME280_humidity;BME280_pressure;Samples;Min_cycle;Max_cycle;Signal;HPM_P1;HPM_P2
2023/09/19 00:00:41;;;;;;;11.25;2.85;;;14.50;87.20;;;;;;4977162;28;20042;-80
2023/09/19 00:03:07;;;;;;;10.98;2.80;;;14.50;87.30;;;;;;4961106;28;20669;-79
2023/09/19 00:05:38;;;;;;;10.38;2.20;;;14.50;87.30;;;;;;4960961;28;20053;-79
2023/09/19 00:08:04;;;;;;;8.38;2.42;;;14.50;87.40;;;;;;4945222;28;20077;-80
2023/09/19 00:10:31;;;;;;;16.05;2.58;;;14.50;87.50;;;;;;4977348;28;20060;-81
2023/09/19 00:12:59;;;;;;;10.20;3.05;;;14.50;87.60;;;;;;4976973;28;20046;-80
2023/09/19 00:15:28;;;;;;;8.88;2.95;;;14.50;87.60;;;;;;4929519;28;20043;-80
2023/09/19 00:17:57;;;;;;;8.50;2.83;;;14.50;88.00;;;;;;4976825;28;20038;-81
2023/09/19 00:20:24;;;;;;;10.82;2.80;;;14.50;88.20;;;;;;4960961;28;20471;-80
2023/09/19 00:22:51;;;;;;;13.98;2.47;;;14.50;88.30;;;;;;4961127;28;20430;-79
2023/09/19 00:25:17;;;;;;;7.90;2.70;;;14.50;87.80;;;;;;4977123;28;20046;-80
2023/09/19 00:27:44;;;;;;;9.05;2.00;;;14.60;87.30;;;;;;4945006;28;20505;-80
2023/09/19 00:30:21;;;;;;;13.07;2.30;;;14.60;86.20;;;;;;4976436;28;20050;-80
2023/09/19 00:32:54;;;;;;;10.60;2.78;;;14.60;84.50;;;;;;4946280;28;20117;-81
2023/09/19 00:35:23;;;;;;;11.20;3.00;;;14.60;84.60;;;;;;4977216;28;20553;-80
2023/09/19 00:37:49;;;;;;;10.65;2.00;;;14.60;83.90;;;;;;4945194;28;21097;-79
2023/09/19 00:40:15;;;;;;;13.10;2.38;;;14.60;83.00;;;;;;4960984;28;20039;-80
2023/09/19 00:42:45;;;;;;;5.90;2.10;;;14.50;82.50;;;;;;4960641;28;20103;-81
2023/09/19 00:45:13;;;;;;;10.68;2.30;;;14.50;82.40;;;;;;4977798;28;20072;-80
2023/09/19 00:47:48;;;;;;;7.38;2.50;;;14.40;82.40;;;;;;4960841;28;20395;-79
2023/09/19 00:50:17;;;;;;;12.18;2.95;;;14.40;82.60;;;;;;4960432;28;20078;-79
2023/09/19 00:52:43;;;;;;;5.80;2.13;;;14.40;82.10;;;;;;4962276;28;20129;-80
2023/09/19 00:55:11;;;;;;;9.43;2.92;;;14.40;81.10;;;;;;4980136;28;20178;-80
2023/09/19 00:57:38;;;;;;;10.25;2.13;;;14.20;81.20;;;;;;4980546;28;20109;-80
2023/09/19 01:00:06;;;;;;;6.75;1.98;;;14.20;81.60;;;;;;4964617;28;20200;-80
2023/09/19 01:02:33;;;;;;;11.85;1.92;;;14.20;80.70;;;;;;4964294;28;20129;-80
2023/09/19 01:05:00;;;;;;;6.47;1.73;;;14.10;80.90;;;;;;4980772;28;20038;-79
2023/09/19 01:07:35;;;;;;;9.63;2.25;;;14.00;81.10;;;;;;4964299;28;20043;-80
2023/09/19 01:10:10;;;;;;;7.00;1.95;;;14.00;81.40;;;;;;4950609;28;20510;-80
2023/09/19 01:13:08;;;;;;;10.10;2.38;;;13.90;82.00;;;;;;4965125;28;20398;-80
2023/09/19 01:15:42;;;;;;;10.20;2.53;;;13.80;82.50;;;;;;4964378;28;20050;-80
2023/09/19 01:18:27;;;;;;;10.80;2.17;;;13.70;82.80;;;;;;4963970;28;20042;-79
2023/09/19 01:21:12;;;;;;;8.60;2.50;;;13.70;83.00;;;;;;4980152;28;20042;-79
2023/09/19 01:23:59;;;;;;;7.90;2.95;;;13.70;83.00;;;;;;4964643;28;20042;-79
2023/09/19 01:27:07;;;;;;;10.73;2.00;;;13.60;83.30;;;;;;4979927;28;20134;-80
2023/09/19 01:29:44;;;;;;;10.48;2.50;;;13.70;83.70;;;;;;4953777;28;20054;-80
2023/09/19 01:32:13;;;;;;;6.68;1.90;;;13.70;84.20;;;;;;4980668;28;20038;-81
2023/09/19 01:34:50;;;;;;;6.28;2.28;;;13.80;83.80;;;;;;4980041;28;20061;-81
2023/09/19 01:37:19;;;;;;;11.52;2.45;;;13.90;84.20;;;;;;4975817;28;20039;-81
2023/09/19 01:39:52;;;;;;;10.68;2.38;;;13.90;84.30;;;;;;4929141;28;20041;-81
2023/09/19 01:42:50;;;;;;;8.75;2.30;;;13.80;84.60;;;;;;4944739;28;20395;-81
2023/09/19 01:45:24;;;;;;;11.00;1.95;;;13.90;84.50;;;;;;4863041;28;20050;-80
2023/09/19 01:47:56;;;;;;;8.55;2.10;;;13.90;84.50;;;;;;4944461;28;20049;-79
2023/09/19 01:51:05;;;;;;;12.88;2.42;;;13.90;84.00;;;;;;4960284;28;20043;-80
2023/09/19 01:54:02;;;;;;;10.50;2.78;;;14.00;83.90;;;;;;4900528;28;20089;-80
2023/09/19 01:56:48;;;;;;;6.88;1.58;;;14.00;84.00;;;;;;4944928;28;20038;-80
2023/09/19 01:59:21;;;;;;;7.65;2.10;;;14.00;84.00;;;;;;4945143;28;20077;-80
2023/09/19 02:01:49;;;;;;;10.57;2.20;;;13.90;84.20;;;;;;4959884;28;20093;-79
2023/09/19 02:04:15;;;;;;;10.57;2.55;;;13.90;84.20;;;;;;4963231;28;20043;-80
2023/09/19 02:06:42;;;;;;;12.68;2.28;;;14.00;83.80;;;;;;4946717;28;20070;-80
2023/09/19 02:09:08;;;;;;;12.40;2.20;;;14.00;83.70;;;;;;4947614;28;20046;-79
2023/09/19 02:11:35;;;;;;;5.15;1.92;;;14.00;83.80;;;;;;4928241;28;20091;-80
2023/09/19 02:14:02;;;;;;;8.35;2.50;;;14.00;83.80;;;;;;4943871;28;20046;-79
2023/09/19 02:16:28;;;;;;;8.75;2.53;;;14.00;83.80;;;;;;4959706;28;20049;-80
2023/09/19 02:18:54;;;;;;;6.22;1.92;;;14.00;83.90;;;;;;4928099;28;20109;-80
2023/09/19 02:21:21;;;;;;;7.13;2.25;;;14.00;83.90;;;;;;4959831;28;20078;-79
2023/09/19 02:23:47;;;;;;;7.70;2.88;;;14.00;83.80;;;;;;4960002;28;20045;-79
2023/09/19 02:26:13;;;;;;;8.35;1.88;;;14.00;83.60;;;;;;4959885;28;20128;-79
2023/09/19 02:28:40;;;;;;;8.02;1.73;;;14.00;83.30;;;;;;4927680;28;20081;-79
2023/09/19 02:31:05;;;;;;;8.85;2.17;;;14.00;83.40;;;;;;4959711;28;20121;-79
2023/09/19 02:33:32;;;;;;;10.77;2.10;;;14.20;82.90;;;;;;4927935;28;20463;-79
2023/09/19 02:35:58;;;;;;;10.38;2.10;;;14.10;82.90;;;;;;4959568;28;20049;-79
2023/09/19 02:38:25;;;;;;;11.27;2.25;;;14.10;83.20;;;;;;4959746;28;20042;-80
2023/09/19 02:40:55;;;;;;;6.88;2.10;;;14.20;82.60;;;;;;4959203;28;20039;-79
2023/09/19 02:43:21;;;;;;;8.52;2.20;;;14.30;82.40;;;;;;4943672;28;20039;-80
2023/09/19 02:45:49;;;;;;;11.30;2.63;;;14.20;82.40;;;;;;4928137;28;20043;-78
2023/09/19 02:48:16;;;;;;;8.10;1.80;;;14.30;82.60;;;;;;4943938;28;20065;-79
2023/09/19 02:50:44;;;;;;;7.30;2.33;;;14.30;82.30;;;;;;4959101;28;20047;-79
2023/09/19 02:53:12;;;;;;;9.20;2.00;;;14.30;82.70;;;;;;4943070;28;20038;-79
2023/09/19 02:55:40;;;;;;;8.05;2.65;;;14.40;82.90;;;;;;4927599;28;20046;-78
2023/09/19 02:58:07;;;;;;;8.25;2.03;;;14.30;83.00;;;;;;4942736;28;20046;-79
2023/09/19 03:00:35;;;;;;;7.20;1.92;;;14.40;82.80;;;;;;4959601;28;20062;-79
2023/09/19 03:03:02;;;;;;;8.80;2.58;;;14.40;83.00;;;;;;4927273;28;20047;-80
2023/09/19 03:05:30;;;;;;;8.88;2.08;;;14.30;83.00;;;;;;4959470;28;20474;-79
2023/09/19 03:08:00;;;;;;;9.80;1.90;;;14.30;82.70;;;;;;4959601;28;20047;-78
2023/09/19 03:10:26;;;;;;;11.70;2.40;;;14.40;82.40;;;;;;4942860;28;20074;-79
2023/09/19 03:12:52;;;;;;;10.07;2.17;;;14.30;82.30;;;;;;4960460;28;20101;-79
2023/09/19 03:15:18;;;;;;;10.05;2.50;;;14.20;82.50;;;;;;4959566;28;20051;-79
2023/09/19 03:17:45;;;;;;;8.15;1.67;;;14.10;82.50;;;;;;4942772;28;20054;-79
2023/09/19 03:20:13;;;;;;;13.18;2.55;;;14.10;82.50;;;;;;4960106;28;20380;-79
2023/09/19 03:22:40;;;;;;;7.80;2.17;;;14.10;82.50;;;;;;4943947;28;20043;-79
2023/09/19 03:25:07;;;;;;;11.02;2.35;;;14.10;82.10;;;;;;4959317;28;20038;-79
2023/09/19 03:27:36;;;;;;;7.80;2.13;;;14.00;81.90;;;;;;4959152;28;20046;-80
2023/09/19 03:30:05;;;;;;;11.32;2.00;;;14.00;81.90;;;;;;4955074;29;20063;-79
2023/09/19 03:32:31;;;;;;;7.85;2.75;;;14.00;81.40;;;;;;4956656;29;20399;-79
2023/09/19 03:34:57;;;;;;;13.93;2.40;;;14.00;81.70;;;;;;4954986;29;20039;-79
2023/09/19 03:37:22;;;;;;;7.50;2.60;;;14.00;81.60;;;;;;4954819;28;20051;-79
2023/09/19 03:39:48;;;;;;;7.90;2.05;;;14.00;81.50;;;;;;4939403;29;20039;-80
2023/09/19 03:42:14;;;;;;;11.60;2.63;;;14.00;81.80;;;;;;4940011;29;20065;-79
2023/09/19 03:44:39;;;;;;;5.20;1.77;;;14.00;82.00;;;;;;4940352;29;20049;-78
2023/09/19 03:47:06;;;;;;;8.75;2.08;;;14.00;82.30;;;;;;4924818;29;20047;-78
2023/09/19 03:49:33;;;;;;;10.75;2.25;;;14.10;82.40;;;;;;4955997;29;20055;-79
2023/09/19 03:51:59;;;;;;;9.35;2.15;;;14.00;82.80;;;;;;4960663;29;20058;-78
2023/09/19 03:54:25;;;;;;;10.70;2.33;;;14.00;83.50;;;;;;4955232;29;20065;-80
2023/09/19 03:56:51;;;;;;;8.82;2.05;;;14.00;83.60;;;;;;4938350;29;20043;-79
2023/09/19 03:59:18;;;;;;;8.10;2.17;;;14.00;83.70;;;;;;4938582;29;20043;-79
2023/09/19 04:01:44;;;;;;;8.82;2.10;;;14.00;83.70;;;;;;4954748;29;20043;-79
2023/09/19 04:04:09;;;;;;;7.13;2.13;;;14.00;84.00;;;;;;4955124;29;20122;-78
2023/09/19 04:06:35;;;;;;;8.85;2.30;;;14.00;84.00;;;;;;4956149;28;20039;-79
2023/09/19 04:09:06;;;;;;;14.48;2.50;;;14.00;84.20;;;;;;4938580;29;20046;-79
2023/09/19 04:11:33;;;;;;;9.93;3.15;;;14.00;84.50;;;;;;4954929;29;20130;-79
2023/09/19 04:13:59;;;;;;;10.48;2.50;;;14.00;84.50;;;;;;4938373;29;20074;-78
2023/09/19 04:16:25;;;;;;;10.85;2.28;;;14.10;84.70;;;;;;4954298;28;20085;-79
2023/09/19 04:18:50;;;;;;;8.63;2.42;;;14.00;85.10;;;;;;4954923;29;20042;-78
2023/09/19 04:21:16;;;;;;;6.88;2.22;;;14.00;85.30;;;;;;4938661;29;20492;-79
2023/09/19 04:23:42;;;;;;;5.50;2.03;;;14.00;85.00;;;;;;4922772;29;20050;-79
2023/09/19 04:26:08;;;;;;;10.48;2.55;;;14.10;84.60;;;;;;4938677;28;20510;-79
2023/09/19 04:28:34;;;;;;;21.10;2.83;;;14.10;84.60;;;;;;4939205;28;20130;-79
2023/09/19 04:31:00;;;;;;;9.07;2.17;;;14.20;84.50;;;;;;4941852;28;20541;-78
2023/09/19 04:33:30;;;;;;;13.25;2.78;;;14.30;84.30;;;;;;4941760;28;20121;-79
2023/09/19 04:35:56;;;;;;;5.82;2.05;;;14.20;84.20;;;;;;4926177;28;20487;-78
2023/09/19 04:38:21;;;;;;;6.95;2.25;;;14.30;83.70;;;;;;4941786;28;20045;-79
2023/09/19 04:40:50;;;;;;;7.40;2.60;;;14.30;83.80;;;;;;4943763;28;20061;-79
2023/09/19 04:43:17;;;;;;;10.15;2.67;;;14.30;83.40;;;;;;4957704;28;20042;-78
2023/09/19 04:45:42;;;;;;;9.45;2.65;;;14.40;83.10;;;;;;4957977;28;20047;-79
2023/09/19 04:48:08;;;;;;;8.25;2.03;;;14.40;82.80;;;;;;4941180;28;20093;-80
2023/09/19 04:50:34;;;;;;;11.40;2.33;;;14.50;82.50;;;;;;4941244;28;20047;-81
2023/09/19 04:53:01;;;;;;;7.50;2.03;;;14.40;82.10;;;;;;4941283;28;20053;-82
2023/09/19 04:55:27;;;;;;;12.77;2.30;;;14.50;80.70;;;;;;4941298;28;20094;-81
2023/09/19 04:57:53;;;;;;;12.55;2.80;;;14.50;80.60;;;;;;4957234;28;20047;-80
2023/09/19 05:00:30;;;;;;;9.88;2.33;;;14.50;79.50;;;;;;4957052;28;20054;-80
2023/09/19 05:02:59;;;;;;;10.45;2.08;;;14.60;79.60;;;;;;4957495;28;20047;-81
2023/09/19 05:05:26;;;;;;;9.73;2.30;;;14.60;79.20;;;;;;4925813;28;20046;-81
2023/09/19 05:07:53;;;;;;;12.65;2.25;;;14.60;78.90;;;;;;4941107;28;20044;-81
2023/09/19 05:10:20;;;;;;;8.65;2.05;;;14.60;79.20;;;;;;4957143;28;20101;-81
2023/09/19 05:12:47;;;;;;;11.75;2.45;;;14.60;79.30;;;;;;4957400;28;20368;-80
2023/09/19 05:15:19;;;;;;;13.27;2.58;;;14.60;79.30;;;;;;4957266;28;20129;-81
2023/09/19 05:17:54;;;;;;;10.70;2.40;;;14.50;79.60;;;;;;4925741;28;20043;-81
2023/09/19 05:20:29;;;;;;;18.60;2.67;;;14.60;79.70;;;;;;4957150;28;20082;-81
2023/09/19 05:23:03;;;;;;;13.02;2.60;;;14.60;79.90;;;;;;4926467;28;20042;-80
2023/09/19 05:25:32;;;;;;;9.27;1.98;;;14.60;80.00;;;;;;4941589;28;20458;-79
2023/09/19 05:28:03;;;;;;;11.60;2.08;;;14.60;80.20;;;;;;4957354;28;20414;-79
2023/09/19 05:30:29;;;;;;;8.57;1.92;;;14.60;80.10;;;;;;4925563;28;20063;-80
2023/09/19 05:32:56;;;;;;;10.68;2.58;;;14.70;80.30;;;;;;4957016;28;20050;-79
2023/09/19 05:35:22;;;;;;;9.82;2.60;;;14.70;80.00;;;;;;4942384;28;20090;-79
2023/09/19 05:37:50;;;;;;;8.27;2.53;;;14.70;80.40;;;;;;4941383;28;20383;-79
2023/09/19 05:40:17;;;;;;;10.00;2.50;;;14.60;80.80;;;;;;4941126;28;20487;-79
2023/09/19 05:42:43;;;;;;;8.60;2.53;;;14.70;80.80;;;;;;4944180;28;20043;-79
2023/09/19 05:45:13;;;;;;;9.43;2.28;;;14.60;81.30;;;;;;4945238;28;20042;-78
2023/09/19 05:47:43;;;;;;;7.63;2.50;;;14.60;81.30;;;;;;4942379;28;20057;-79
2023/09/19 05:50:09;;;;;;;8.68;2.28;;;14.60;81.50;;;;;;4961392;28;20086;-79
2023/09/19 05:52:42;;;;;;;9.95;2.00;;;14.60;81.50;;;;;;4962161;28;20081;-79
2023/09/19 05:55:08;;;;;;;12.15;2.65;;;14.70;81.50;;;;;;4949291;28;20541;-78
2023/09/19 05:57:35;;;;;;;12.68;2.22;;;14.70;81.40;;;;;;4942589;28;20047;-79
2023/09/19 06:00:00;;;;;;;9.63;2.47;;;14.70;81.30;;;;;;4943659;28;20132;-79
2023/09/19 06:02:28;;;;;;;8.57;2.35;;;14.80;81.10;;;;;;4932515;28;20865;-79
2023/09/19 06:04:55;;;;;;;11.95;1.95;;;14.70;81.10;;;;;;4959154;28;20035;-79
2023/09/19 06:07:23;;;;;;;6.45;1.90;;;14.80;81.10;;;;;;4943276;28;20102;-80
2023/09/19 06:09:49;;;;;;;9.68;3.15;;;14.80;80.80;;;;;;4959355;28;20043;-80
2023/09/19 06:12:17;;;;;;;10.98;2.90;;;14.80;81.10;;;;;;4943623;28;20050;-79
2023/09/19 06:14:43;;;;;;;11.88;3.13;;;14.80;81.00;;;;;;4943381;28;20092;-79
2023/09/19 06:17:09;;;;;;;12.40;2.50;;;14.80;81.00;;;;;;4943145;28;20078;-79
2023/09/19 06:19:34;;;;;;;7.80;2.17;;;14.80;81.20;;;;;;4959280;28;20077;-79
2023/09/19 06:22:00;;;;;;;7.40;1.65;;;14.80;81.20;;;;;;4943447;28;20199;-79
2023/09/19 06:24:26;;;;;;;8.68;2.25;;;14.80;81.30;;;;;;4943264;28;20050;-79
2023/09/19 06:26:52;;;;;;;13.63;2.70;;;14.80;81.40;;;;;;4911944;28;20089;-79
2023/09/19 06:29:20;;;;;;;9.60;2.58;;;14.80;81.20;;;;;;4943324;28;20137;-79
2023/09/19 06:31:47;;;;;;;14.57;3.05;;;14.80;81.10;;;;;;4959294;28;20082;-79
2023/09/19 06:34:15;;;;;;;10.38;2.47;;;14.90;80.70;;;;;;4943316;28;20047;-79
2023/09/19 06:36:41;;;;;;;9.30;2.58;;;14.90;80.50;;;;;;4927260;28;20133;-79
2023/09/19 06:39:10;;;;;;;10.40;2.85;;;15.00;80.00;;;;;;4959489;28;20046;-79
2023/09/19 06:41:38;;;;;;;11.73;2.35;;;15.00;80.30;;;;;;4942794;28;20045;-78
2023/09/19 06:44:05;;;;;;;11.80;2.80;;;15.00;80.40;;;;;;4943188;28;20049;-79
2023/09/19 06:46:34;;;;;;;9.57;2.80;;;15.00;80.70;;;;;;4953079;28;20030;-79
2023/09/19 06:49:03;;;;;;;12.90;2.72;;;15.00;80.40;;;;;;4983770;28;20071;-79
2023/09/19 06:51:29;;;;;;;9.43;2.53;;;15.10;80.30;;;;;;4983927;28;20070;-79
2023/09/19 06:53:56;;;;;;;8.23;2.30;;;15.20;80.10;;;;;;4984069;28;20062;-78
2023/09/19 06:56:24;;;;;;;9.57;2.38;;;15.20;79.70;;;;;;4952702;28;20109;-78
2023/09/19 06:58:50;;;;;;;13.05;3.25;;;15.20;79.40;;;;;;4968807;28;20027;-78
2023/09/19 07:01:16;;;;;;;8.73;2.03;;;15.30;79.60;;;;;;4984396;28;20107;-78
2023/09/19 07:03:41;;;;;;;9.23;2.22;;;15.40;79.70;;;;;;4981880;28;20572;-79
2023/09/19 07:06:08;;;;;;;8.93;2.15;;;15.40;79.40;;;;;;4947774;28;20061;-79
2023/09/19 07:08:34;;;;;;;7.68;1.83;;;15.50;79.20;;;;;;4952057;28;20023;-79
2023/09/19 07:11:00;;;;;;;7.28;1.85;;;15.50;79.10;;;;;;4968175;28;20034;-79
2023/09/19 07:13:25;;;;;;;14.45;3.15;;;15.60;78.50;;;;;;4967733;28;20027;-79
2023/09/19 07:15:51;;;;;;;10.50;2.15;;;15.60;78.40;;;;;;4964611;28;20129;-79
2023/09/19 07:18:17;;;;;;;11.02;2.83;;;15.60;78.20;;;;;;4952557;28;20053;-78
2023/09/19 07:20:50;;;;;;;7.35;2.15;;;15.60;78.10;;;;;;4952307;28;20402;-78
2023/09/19 07:23:21;;;;;;;12.80;3.10;;;15.70;76.60;;;;;;4961535;28;20074;-78
2023/09/19 07:25:48;;;;;;;8.57;2.13;;;15.60;76.90;;;;;;4942272;28;20038;-78
2023/09/19 07:28:14;;;;;;;11.95;2.70;;;15.80;76.70;;;;;;4942064;28;20502;-79
2023/09/19 07:30:41;;;;;;;11.13;2.38;;;15.70;77.30;;;;;;4957766;28;20059;-79
2023/09/19 07:33:11;;;;;;;8.55;2.42;;;15.70;77.50;;;;;;4941905;28;20503;-78
2023/09/19 07:35:40;;;;;;;10.48;2.17;;;15.80;77.40;;;;;;4941941;28;20085;-79
2023/09/19 07:38:06;;;;;;;11.23;2.22;;;15.80;77.90;;;;;;4957700;28;20109;-78
2023/09/19 07:40:32;;;;;;;14.00;2.47;;;16.00;77.50;;;;;;4941896;28;20047;-79
2023/09/19 07:43:01;;;;;;;9.25;2.55;;;16.00;77.90;;;;;;4941990;28;20086;-79
2023/09/19 07:45:29;;;;;;;10.27;2.20;;;16.10;78.10;;;;;;4941813;28;20038;-79
2023/09/19 07:47:55;;;;;;;12.75;2.58;;;16.20;78.20;;;;;;4941766;28;20418;-79
2023/09/19 07:50:21;;;;;;;12.77;3.17;;;16.40;77.30;;;;;;4941878;28;20475;-78
2023/09/19 07:52:50;;;;;;;9.23;2.38;;;16.40;76.50;;;;;;4941518;28;20081;-78
2023/09/19 07:55:17;;;;;;;11.55;2.70;;;16.50;77.00;;;;;;4957715;28;20403;-78
2023/09/19 07:57:46;;;;;;;6.28;2.03;;;16.50;76.70;;;;;;4957199;28;20516;-78
2023/09/19 08:00:13;;;;;;;25.17;3.47;;;16.60;75.90;;;;;;4957446;28;20047;-78
2023/09/19 08:02:42;;;;;;;9.40;1.98;;;16.50;76.40;;;;;;4957555;28;20042;-79
2023/09/19 08:05:10;;;;;;;12.20;2.85;;;16.60;75.90;;;;;;4940857;28;20039;-78
2023/09/19 08:07:40;;;;;;;8.07;2.03;;;16.60;76.60;;;;;;4941236;28;20085;-79
2023/09/19 08:10:15;;;;;;;11.68;2.95;;;16.60;77.20;;;;;;4941430;28;20065;-80
2023/09/19 08:12:46;;;;;;;8.48;2.35;;;16.80;76.60;;;;;;4957358;28;20051;-80
2023/09/19 08:15:17;;;;;;;9.88;2.80;;;16.80;76.70;;;;;;4942172;28;20058;-79
2023/09/19 08:17:43;;;;;;;14.15;3.35;;;16.90;76.90;;;;;;4941029;28;20510;-78
2023/09/19 08:20:16;;;;;;;13.15;2.67;;;17.00;76.70;;;;;;4957124;28;20483;-79
2023/09/19 08:22:45;;;;;;;8.13;2.25;;;16.90;76.80;;;;;;4957059;28;20101;-79
2023/09/19 08:25:12;;;;;;;13.15;2.67;;;17.00;75.60;;;;;;4941699;28;20050;-78
2023/09/19 08:27:37;;;;;;;16.17;2.92;;;17.00;75.90;;;;;;4909955;28;20038;-79
2023/09/19 08:30:04;;;;;;;9.00;2.30;;;17.10;74.70;;;;;;4896939;28;20882;-79
2023/09/19 08:32:29;;;;;;;11.10;3.42;;;17.20;74.60;;;;;;4939328;28;20055;-79
2023/09/19 08:34:55;;;;;;;7.85;3.10;;;17.30;74.40;;;;;;4938118;28;20054;-79
2023/09/19 08:37:21;;;;;;;10.15;2.22;;;17.30;72.60;;;;;;4958478;28;20131;-78
2023/09/19 08:39:46;;;;;;;8.15;2.88;;;17.30;72.50;;;;;;4922224;28;20058;-78
2023/09/19 08:42:13;;;;;;;10.55;2.53;;;17.40;72.60;;;;;;4924498;28;20050;-79
2023/09/19 08:44:40;;;;;;;8.77;2.42;;;17.50;72.20;;;;;;4954966;28;20047;-79
2023/09/19 08:47:19;;;;;;;9.68;2.55;;;17.50;70.40;;;;;;4940934;28;20050;-79
2023/09/19 08:50:00;;;;;;;15.30;2.75;;;17.50;69.50;;;;;;4938235;28;20050;-81
2023/09/19 08:52:35;;;;;;;9.27;2.78;;;17.60;68.90;;;;;;4936791;28;20043;-79
2023/09/19 08:55:09;;;;;;;17.48;3.20;;;17.60;70.00;;;;;;4922161;28;20050;-79
2023/09/19 08:57:41;;;;;;;12.38;3.47;;;17.70;70.30;;;;;;4954621;28;20044;-80
2023/09/19 09:00:11;;;;;;;10.63;2.70;;;17.70;70.50;;;;;;4934549;28;20043;-80
2023/09/19 09:02:42;;;;;;;11.57;3.28;;;17.70;70.00;;;;;;4958170;28;20069;-80
2023/09/19 09:05:10;;;;;;;10.60;3.40;;;17.70;69.60;;;;;;4924509;28;20030;-80
2023/09/19 09:07:40;;;;;;;8.80;2.75;;;17.80;70.20;;;;;;4951857;28;20051;-80
2023/09/19 09:10:07;;;;;;;9.48;3.38;;;17.90;70.60;;;;;;4932764;28;20138;-81
2023/09/19 09:12:36;;;;;;;9.95;2.22;;;18.00;69.80;;;;;;4940438;28;20057;-81
2023/09/19 09:15:03;;;;;;;11.40;2.60;;;17.90;69.30;;;;;;4956244;28;20055;-82
2023/09/19 09:17:30;;;;;;;8.23;2.97;;;18.00;67.90;;;;;;4924265;28;20115;-81
2023/09/19 09:19:56;;;;;;;11.40;2.58;;;18.00;66.60;;;;;;4939381;28;20130;-82
2023/09/19 09:22:22;;;;;;;13.43;3.00;;;18.00;68.30;;;;;;4927125;28;20047;-81
2023/09/19 09:24:57;;;;;;;14.23;3.88;;;18.20;69.50;;;;;;4939335;28;20891;-82
2023/09/19 09:27:24;;;;;;;8.63;2.92;;;18.30;68.20;;;;;;4942868;28;20078;-80
2023/09/19 09:29:50;;;;;;;11.65;3.72;;;18.30;68.20;;;;;;4955069;28;20523;-79
2023/09/19 09:32:18;;;;;;;10.55;2.88;;;18.30;68.40;;;;;;4941880;28;20502;-80
2023/09/19 09:34:44;;;;;;;10.82;3.15;;;18.40;68.60;;;;;;4956706;28;20078;-79
2023/09/19 09:37:15;;;;;;;9.20;2.80;;;18.40;68.00;;;;;;4927622;28;20148;-80
2023/09/19 09:39:54;;;;;;;14.95;4.28;;;18.50;69.40;;;;;;4948864;28;20453;-79
2023/09/19 09:42:32;;;;;;;13.55;3.30;;;18.40;69.60;;;;;;4956055;28;20051;-80
2023/09/19 09:48:14;;;;;;;12.45;2.67;;;18.50;69.40;;;;;;4877044;29;20266;-80
2023/09/19 09:50:56;;;;;;;12.48;3.47;;;18.50;70.40;;;;;;4881554;29;20108;-79
2023/09/19 09:53:28;;;;;;;13.45;3.42;;;18.50;69.70;;;;;;4936665;28;20122;-80
2023/09/19 09:56:09;;;;;;;14.27;3.50;;;18.60;70.20;;;;;;4976094;28;20129;-80
2023/09/19 09:58:55;;;;;;;14.00;2.65;;;18.50;68.70;;;;;;4976935;28;20125;-79
2023/09/19 10:01:26;;;;;;;13.27;4.03;;;18.50;68.70;;;;;;4976387;28;20039;-80
2023/09/19 10:03:57;;;;;;;15.48;4.28;;;18.40;68.90;;;;;;4959437;28;20134;-79
2023/09/19 10:11:43;;;;;;;13.90;3.22;;;18.10;76.80;;;;;;4975586;28;20487;-79
2023/09/19 10:14:14;;;;;;;11.05;3.40;;;18.00;77.70;;;;;;4975575;28;20038;-79
2023/09/19 10:16:47;;;;;;;12.45;3.63;;;18.00;78.10;;;;;;4975223;28;20051;-79
2023/09/19 10:19:22;;;;;;;13.93;3.37;;;18.00;77.70;;;;;;4959557;28;20387;-79
2023/09/19 10:21:51;;;;;;;11.57;3.17;;;18.10;78.20;;;;;;4975170;28;20509;-79
2023/09/19 10:24:17;;;;;;;18.50;4.18;;;18.00;78.20;;;;;;4959648;28;20039;-79
2023/09/19 10:26:45;;;;;;;20.45;4.13;;;18.20;78.60;;;;;;4958286;28;20089;-79
2023/09/19 10:29:16;;;;;;;9.07;3.25;;;18.30;78.10;;;;;;4977091;28;20058;-79
2023/09/19 10:31:47;;;;;;;15.77;3.83;;;18.20;78.30;;;;;;4978819;28;20132;-79
2023/09/19 10:34:15;;;;;;;12.85;3.30;;;18.20;78.60;;;;;;4963719;28;20065;-79
2023/09/19 10:36:45;;;;;;;11.10;3.13;;;18.30;78.70;;;;;;4962270;28;20054;-79
2023/09/19 10:39:13;;;;;;;11.98;3.85;;;18.30;79.00;;;;;;4962342;28;20042;-79
2023/09/19 10:41:39;;;;;;;16.67;4.10;;;18.20;78.50;;;;;;4962321;28;20406;-79
2023/09/19 10:44:06;;;;;;;12.18;3.35;;;18.00;78.90;;;;;;4946656;28;20038;-80
2023/09/19 10:46:33;;;;;;;12.15;3.22;;;17.90;79.20;;;;;;4978071;28;20038;-80
2023/09/19 10:49:03;;;;;;;12.82;4.43;;;17.90;79.30;;;;;;4978461;28;20078;-80
2023/09/19 10:51:40;;;;;;;12.25;3.65;;;17.80;79.40;;;;;;4979146;28;20046;-80
2023/09/19 10:54:13;;;;;;;11.20;3.83;;;17.70;79.70;;;;;;4979157;28;20073;-79
2023/09/19 10:56:45;;;;;;;16.85;3.90;;;17.50;80.40;;;;;;4977831;28;20121;-79
2023/09/19 10:59:12;;;;;;;10.93;3.88;;;17.50;80.20;;;;;;4978138;28;20074;-79
2023/09/19 11:01:47;;;;;;;12.48;3.78;;;17.60;80.20;;;;;;4978250;28;20030;-79
2023/09/19 11:04:29;;;;;;;11.88;4.43;;;17.90;80.80;;;;;;4978301;28;20129;-79
2023/09/19 11:07:12;;;;;;;14.63;4.40;;;18.00;80.20;;;;;;4978650;28;20054;-80
2023/09/19 11:09:54;;;;;;;10.00;3.63;;;18.40;80.20;;;;;;4978051;28;20078;-79
2023/09/19 11:12:29;;;;;;;9.55;3.40;;;18.30;78.80;;;;;;4977514;28;20078;-80
2023/09/19 11:14:55;;;;;;;12.30;3.42;;;18.10;79.00;;;;;;4977850;28;20459;-79
2023/09/19 11:17:21;;;;;;;15.48;3.30;;;18.00;79.10;;;;;;4977622;28;20053;-80
2023/09/19 11:22:49;;;;;;;11.98;3.85;;;17.90;81.20;;;;;;4977626;28;20038;-80
2023/09/19 11:25:29;;;;;;;9.10;3.15;;;17.80;80.60;;;;;;4961385;28;20041;-80
2023/09/19 11:28:08;;;;;;;12.13;3.42;;;17.80;80.30;;;;;;4977255;28;20053;-79
2023/09/19 11:30:37;;;;;;;16.25;5.22;;;17.90;80.60;;;;;;4961006;28;20137;-80
2023/09/19 11:33:33;;;;;;;18.20;4.25;;;17.90;80.80;;;;;;4961012;28;20042;-80
2023/09/19 11:36:03;;;;;;;12.57;3.83;;;17.70;81.00;;;;;;4961234;28;20042;-79
2023/09/19 11:38:53;;;;;;;17.25;4.93;;;17.70;80.90;;;;;;4977425;28;20047;-82
2023/09/19 11:41:25;;;;;;;17.00;5.22;;;17.60;82.00;;;;;;4961090;28;20096;-81
2023/09/19 11:43:57;;;;;;;10.63;3.38;;;17.50;82.80;;;;;;4976985;28;20038;-80
2023/09/19 11:46:23;;;;;;;14.05;3.72;;;17.40;83.10;;;;;;4960666;28;20442;-80
2023/09/19 11:48:50;;;;;;;12.13;4.57;;;17.30;83.50;;;;;;4961139;28;20038;-80
2023/09/19 11:51:26;;;;;;;15.20;4.10;;;17.20;84.90;;;;;;4960968;28;20386;-80
2023/09/19 11:53:59;;;;;;;16.58;5.25;;;16.90;87.40;;;;;;4960657;28;20046;-82
2023/09/19 11:56:27;;;;;;;15.05;5.00;;;16.70;88.40;;;;;;4929426;28;20041;-83
2023/09/19 11:58:57;;;;;;;15.68;5.28;;;16.60;89.50;;;;;;4960578;28;20034;-83
2023/09/19 12:01:34;;;;;;;13.20;4.40;;;16.50;89.70;;;;;;4960890;28;20483;-83
2023/09/19 12:04:01;;;;;;;11.85;4.20;;;16.40;91.10;;;;;;4945241;28;20045;-83
2023/09/19 12:06:38;;;;;;;14.30;4.28;;;16.30;91.20;;;;;;4960704;28;20125;-81
2023/09/19 12:09:10;;;;;;;13.27;4.90;;;16.40;92.10;;;;;;4976557;28;20042;-82
2023/09/19 12:11:42;;;;;;;10.88;3.78;;;16.50;92.50;;;;;;4946430;28;20034;-82
2023/09/19 12:14:08;;;;;;;9.13;4.32;;;16.80;92.60;;;;;;4960529;28;20053;-82
2023/09/19 12:16:36;;;;;;;8.25;3.75;;;16.90;91.40;;;;;;4960254;28;20042;-81
2023/09/19 12:19:23;;;;;;;11.77;3.58;;;16.90;90.90;;;;;;4960961;28;20049;-82
2023/09/19 12:22:04;;;;;;;8.77;3.38;;;17.00;90.00;;;;;;4960811;28;20073;-81
2023/09/19 12:24:30;;;;;;;15.13;3.35;;;17.10;89.50;;;;;;4976650;28;20050;-82
2023/09/19 12:27:01;;;;;;;9.23;2.63;;;17.10;89.40;;;;;;4960618;28;20428;-81
2023/09/19 12:29:27;;;;;;;11.70;4.47;;;17.20;88.80;;;;;;4959962;28;20073;-82
2023/09/19 12:31:57;;;;;;;11.27;3.72;;;17.40;88.30;;;;;;4944611;28;20081;-81
2023/09/19 12:34:36;;;;;;;13.85;3.08;;;17.40;87.30;;;;;;4978712;28;20080;-81
2023/09/19 12:37:21;;;;;;;8.57;2.25;;;17.40;86.60;;;;;;4962101;28;20039;-81
2023/09/19 12:39:49;;;;;;;9.25;2.55;;;17.40;86.90;;;;;;4962091;28;20553;-82
2023/09/19 12:42:22;;;;;;;9.75;2.80;;;17.30;86.20;;;;;;4943501;28;20049;-81
2023/09/19 12:44:55;;;;;;;8.18;2.83;;;17.30;86.00;;;;;;4931610;29;20035;-80
2023/09/19 12:47:23;;;;;;;10.82;3.60;;;17.30;85.50;;;;;;4954312;28;20043;-80
2023/09/19 12:50:18;;;;;;;9.65;3.13;;;17.20;86.20;;;;;;4924449;28;20104;-80
2023/09/19 12:52:48;;;;;;;10.60;3.42;;;17.20;87.50;;;;;;4961138;28;20454;-82
2023/09/19 12:55:22;;;;;;;8.25;3.28;;;17.00;88.80;;;;;;4928897;28;20126;-83
2023/09/19 12:58:09;;;;;;;7.43;2.85;;;16.90;89.50;;;;;;4944624;28;20403;-81
2023/09/19 13:00:42;;;;;;;5.80;2.65;;;16.90;90.10;;;;;;4943774;28;20074;-81
2023/09/19 13:03:24;;;;;;;5.35;2.85;;;17.00;89.80;;;;;;4929256;28;20045;-82
2023/09/19 13:05:59;;;;;;;10.48;2.60;;;17.00;89.70;;;;;;4957990;28;20055;-80